Time;durP1;ratioP1;P1;durP2;ratioP2;P2;SDS_P1;SDS_P2;PMS_P1;PMS_P2;Temp;Humidity;BMP_temperature;BMP_pressure;BME280_temperature;BME280_humidity;BME280_pressure;Samples;Min_cycle;Max_cycle;Signal;HPM_P1;HPM_P2
2021/11/17 02:28:06;;;;;;;4.90;3.60;;;7.00;99.90;;;;;;4953139;28;20452;-85
2021/11/17 02:30:40;;;;;;;5.40;4.38;;;7.00;99.90;;;;;;4967720;28;20132;-85
2021/11/17 02:33:52;;;;;;;7.47;4.40;;;7.40;99.90;;;;;;4968616;28;20041;-85
2021/11/17 02:36:24;;;;;;;7.10;4.30;;;7.00;99.90;;;;;;4897532;29;20048;-84
2021/11/17 02:39:08;;;;;;;4.28;3.35;;;6.90;99.90;;;;;;4897720;29;20096;-85
2021/11/17 02:41:55;;;;;;;8.27;5.55;;;7.00;99.90;;;;;;4899113;29;20043;-85
2021/11/17 02:44:26;;;;;;;4.18;3.28;;;6.90;99.90;;;;;;4899014;29;20032;-85
2021/11/17 02:47:14;;;;;;;4.40;3.13;;;6.90;99.90;;;;;;4882911;29;20041;-85
2021/11/17 02:50:06;;;;;;;4.05;3.50;;;6.90;99.90;;;;;;4877095;29;20548;-85
2021/11/17 02:52:59;;;;;;;4.18;3.17;;;7.00;99.90;;;;;;4880187;29;20033;-85
2021/11/17 02:55:48;;;;;;;3.75;2.60;;;7.00;99.90;;;;;;4880121;29;20032;-85
2021/11/17 02:58:41;;;;;;;3.30;2.60;;;6.90;99.90;;;;;;4879796;29;20501;-85
2021/11/17 03:01:37;;;;;;;7.55;5.53;;;6.90;99.90;;;;;;4879438;29;20123;-85
2021/11/17 03:04:29;;;;;;;3.83;2.95;;;6.90;99.90;;;;;;4869054;29;20059;-85
2021/11/17 03:07:22;;;;;;;4.05;3.38;;;6.90;99.90;;;;;;4896523;29;20501;-85
2021/11/17 03:10:16;;;;;;;6.72;4.50;;;7.00;99.90;;;;;;4895749;29;20428;-85
2021/11/17 03:12:47;;;;;;;5.82;4.22;;;7.00;99.90;;;;;;4875845;28;20054;-85
2021/11/17 03:15:47;;;;;;;4.10;3.40;;;7.00;99.90;;;;;;4955414;28;20436;-85
2021/11/17 03:18:12;;;;;;;4.93;3.60;;;7.00;99.90;;;;;;4963854;28;20061;-85
2021/11/17 03:20:59;;;;;;;3.80;2.67;;;7.00;99.90;;;;;;4955851;28;20027;-85
2021/11/17 03:23:56;;;;;;;5.35;3.92;;;7.00;99.90;;;;;;4955228;28;20043;-85
2021/11/17 03:26:53;;;;;;;5.32;3.53;;;7.00;99.90;;;;;;4941408;29;20129;-85
2021/11/17 03:29:34;;;;;;;7.80;5.22;;;7.00;99.90;;;;;;4939572;29;20500;-85
2021/11/17 03:32:44;;;;;;;3.92;3.05;;;7.00;99.90;;;;;;4955234;28;20039;-85
2021/11/17 03:35:32;;;;;;;3.95;2.92;;;7.00;99.90;;;;;;4919884;29;20040;-85
2021/11/17 03:38:06;;;;;;;3.55;2.67;;;6.90;99.90;;;;;;4917109;29;20028;-85
2021/11/17 03:40:45;;;;;;;3.50;2.90;;;6.90;99.90;;;;;;4917321;29;20043;-85
2021/11/17 03:43:22;;;;;;;5.57;4.15;;;6.90;99.90;;;;;;4917349;29;20480;-85
2021/11/17 03:45:50;;;;;;;3.55;2.70;;;7.00;99.90;;;;;;4914079;29;20040;-85
2021/11/17 03:48:45;;;;;;;3.90;3.00;;;6.90;99.90;;;;;;4915024;29;20513;-85
2021/11/17 03:51:14;;;;;;;4.82;3.13;;;7.00;99.90;;;;;;4970942;28;20451;-85
2021/11/17 03:54:23;;;;;;;6.22;3.95;;;6.90;99.90;;;;;;4989882;28;20042;-85
2021/11/17 03:57:07;;;;;;;4.75;3.78;;;7.00;99.90;;;;;;4989690;28;20548;-86
2021/11/17 03:59:59;;;;;;;5.70;4.30;;;6.90;99.90;;;;;;4986570;28;20546;-85
2021/11/17 04:02:38;;;;;;;5.90;4.40;;;6.90;99.90;;;;;;4981732;28;20034;-85
2021/11/17 04:05:42;;;;;;;3.63;3.03;;;6.90;99.90;;;;;;4993069;28;20045;-85
2021/11/17 04:08:22;;;;;;;3.90;2.58;;;7.00;99.90;;;;;;4967464;28;20073;-85
2021/11/17 04:11:23;;;;;;;5.15;3.75;;;6.90;99.90;;;;;;4967883;28;20391;-85
2021/11/17 04:14:05;;;;;;;6.82;5.28;;;6.90;99.90;;;;;;4953656;28;20172;-85
2021/11/17 04:16:48;;;;;;;6.28;4.20;;;6.90;99.90;;;;;;4951694;28;20039;-86
2021/11/17 04:19:22;;;;;;;8.93;5.72;;;6.80;99.90;;;;;;4952079;28;20130;-85
2021/11/17 04:22:00;;;;;;;4.15;3.33;;;6.80;99.90;;;;;;4950937;28;20507;-85
2021/11/17 04:24:56;;;;;;;11.00;5.50;;;6.90;99.90;;;;;;4951033;28;20075;-85
2021/11/17 04:27:46;;;;;;;3.83;2.85;;;6.90;99.90;;;;;;4980642;28;20038;-86
2021/11/17 04:30:14;;;;;;;7.03;4.82;;;6.80;99.90;;;;;;5005170;28;20530;-85
2021/11/17 04:32:51;;;;;;;6.35;4.68;;;6.80;99.90;;;;;;5002431;28;20033;-86
2021/11/17 04:35:49;;;;;;;6.80;4.55;;;6.90;99.90;;;;;;5004953;28;20091;-85
2021/11/17 04:38:20;;;;;;;10.07;6.80;;;6.90;99.90;;;;;;4978404;28;20042;-85
2021/11/17 04:41:04;;;;;;;8.40;6.18;;;6.90;99.90;;;;;;4976047;28;20046;-85
2021/11/17 04:43:54;;;;;;;8.45;5.75;;;6.90;99.90;;;;;;5027082;28;20592;-85
2021/11/17 04:46:28;;;;;;;7.07;4.05;;;7.00;99.90;;;;;;5033520;28;20029;-85
2021/11/17 04:49:02;;;;;;;6.00;4.28;;;6.90;99.90;;;;;;5032500;28;20068;-85
2021/11/17 04:51:36;;;;;;;6.63;4.88;;;7.20;99.90;;;;;;5031548;28;20128;-85
2021/11/17 04:54:42;;;;;;;11.40;7.70;;;7.00;99.90;;;;;;5036634;28;20026;-85
2021/11/17 04:57:20;;;;;;;6.32;4.78;;;7.00;99.90;;;;;;5004580;28;20096;-85
2021/11/17 05:00:06;;;;;;;6.15;4.57;;;7.00;99.90;;;;;;5034457;28;20131;-86
2021/11/17 05:02:43;;;;;;;6.10;3.92;;;7.00;99.90;;;;;;5036651;28;20044;-86
2021/11/17 05:05:27;;;;;;;9.00;4.80;;;7.00;99.90;;;;;;5024027;28;20057;-86
2021/11/17 05:08:23;;;;;;;8.52;6.10;;;7.00;99.90;;;;;;5013444;28;20398;-86
2021/11/17 05:10:54;;;;;;;7.53;4.32;;;7.10;99.90;;;;;;5009933;28;20513;-86
2021/11/17 05:13:38;;;;;;;12.55;8.48;;;7.00;99.90;;;;;;5023147;28;20034;-86
2021/11/17 05:16:18;;;;;;;6.90;5.03;;;7.10;99.90;;;;;;5048254;28;20044;-86
2021/11/17 05:18:58;;;;;;;5.28;4.38;;;7.10;99.90;;;;;;5037701;28;20080;-85
2021/11/17 05:21:33;;;;;;;4.60;3.70;;;7.10;99.90;;;;;;5053649;28;20021;-85
2021/11/17 05:24:04;;;;;;;4.70;3.50;;;7.10;99.90;;;;;;5058507;28;20036;-85
2021/11/17 05:26:44;;;;;;;6.18;4.70;;;7.10;99.90;;;;;;5056790;28;20412;-86
2021/11/17 05:29:15;;;;;;;4.28;3.60;;;7.10;99.90;;;;;;5056614;28;20100;-86
2021/11/17 05:31:44;;;;;;;5.78;4.10;;;7.50;99.90;;;;;;5056834;28;20029;-85
2021/11/17 05:34:19;;;;;;;6.95;4.25;;;7.40;99.90;;;;;;5056381;28;20496;-86
2021/11/17 05:37:06;;;;;;;8.10;5.20;;;7.00;99.90;;;;;;5052951;28;20023;-85
2021/11/17 05:39:58;;;;;;;7.10;4.35;;;7.10;99.90;;;;;;5051323;28;20045;-85
2021/11/17 05:42:27;;;;;;;5.95;4.00;;;7.10;99.90;;;;;;5065947;28;20017;-85
2021/11/17 05:45:08;;;;;;;8.45;5.63;;;7.00;99.90;;;;;;5057035;28;20036;-85
2021/11/17 05:48:02;;;;;;;4.90;3.72;;;7.00;99.90;;;;;;5053879;28;20464;-85
2021/11/17 05:50:58;;;;;;;5.82;4.38;;;7.10;99.90;;;;;;5056331;28;20074;-85
2021/11/17 05:53:44;;;;;;;5.53;4.22;;;7.10;99.90;;;;;;5056441;28;20112;-85
2021/11/17 05:56:25;;;;;;;4.65;3.78;;;7.10;99.90;;;;;;5056252;28;20116;-85
2021/11/17 05:59:03;;;;;;;5.05;4.07;;;7.20;99.90;;;;;;5055475;28;20041;-86
2021/11/17 06:01:50;;;;;;;7.90;6.13;;;7.00;99.90;;;;;;5055885;28;20035;-86
2021/11/17 06:04:15;;;;;;;9.40;5.85;;;7.00;99.90;;;;;;5059328;28;20132;-85
2021/11/17 06:06:41;;;;;;;11.80;9.20;;;7.00;99.90;;;;;;5071666;28;20079;-86
2021/11/17 06:09:06;;;;;;;8.20;5.20;;;6.90;99.90;;;;;;5076938;28;20027;-85
2021/11/17 06:11:35;;;;;;;18.05;10.98;;;6.90;99.90;;;;;;5073245;28;20373;-85
2021/11/17 06:14:02;;;;;;;12.10;8.18;;;7.00;99.90;;;;;;5075545;28;20032;-85
2021/11/17 06:16:29;;;;;;;27.15;16.52;;;7.50;99.90;;;;;;5075587;28;20032;-85
2021/11/17 06:18:56;;;;;;;16.45;10.18;;;7.00;99.90;;;;;;5072525;28;20125;-85
2021/11/17 06:21:22;;;;;;;27.02;14.02;;;7.00;99.90;;;;;;5073603;28;20025;-85
2021/11/17 06:23:53;;;;;;;10.70;6.57;;;7.00;99.90;;;;;;5075314;28;20028;-86
2021/11/17 06:26:23;;;;;;;30.35;18.02;;;7.00;99.90;;;;;;5075389;28;20032;-85
2021/11/17 06:28:55;;;;;;;7.18;5.93;;;7.10;99.90;;;;;;5075284;28;20034;-86
2021/11/17 06:31:22;;;;;;;10.05;6.57;;;7.50;99.90;;;;;;5075102;28;20515;-85
2021/11/17 06:33:47;;;;;;;11.43;7.25;;;7.40;99.90;;;;;;5072377;28;20090;-86
2021/11/17 06:36:14;;;;;;;10.40;7.82;;;6.90;99.90;;;;;;5075314;28;20393;-86
2021/11/17 06:38:40;;;;;;;11.52;8.00;;;6.70;99.90;;;;;;5073596;28;20146;-85
2021/11/17 06:41:06;;;;;;;10.15;7.20;;;7.20;99.90;;;;;;5075415;28;20157;-86
2021/11/17 06:43:32;;;;;;;9.45;6.47;;;7.40;99.90;;;;;;5074777;28;20036;-85
2021/11/17 06:45:58;;;;;;;18.63;11.00;;;6.80;99.90;;;;;;5073341;28;20055;-86
2021/11/17 06:48:26;;;;;;;15.13;9.95;;;6.80;99.90;;;;;;5072356;28;20539;-85
2021/11/17 06:50:54;;;;;;;9.68;6.28;;;7.10;99.90;;;;;;5076658;28;20449;-86
2021/11/17 06:53:22;;;;;;;7.97;6.00;;;6.80;99.90;;;;;;5074623;28;20029;-86
2021/11/17 06:55:47;;;;;;;9.35;6.82;;;6.80;99.90;;;;;;5074612;28;20033;-83
2021/11/17 06:58:14;;;;;;;9.90;6.55;;;7.20;99.90;;;;;;5073383;28;20042;-85
2021/11/17 07:00:43;;;;;;;9.77;6.93;;;6.70;99.90;;;;;;5069472;28;20056;-85
2021/11/17 07:03:09;;;;;;;9.90;6.97;;;6.70;99.90;;;;;;5075498;28;20457;-86
2021/11/17 07:05:35;;;;;;;9.73;6.72;;;6.70;99.90;;;;;;5062430;28;20048;-85
2021/11/17 07:08:03;;;;;;;11.70;8.15;;;6.80;99.90;;;;;;5058513;28;20042;-85
2021/11/17 07:10:31;;;;;;;10.38;6.35;;;6.80;99.90;;;;;;5054581;28;20507;-85
2021/11/17 07:12:57;;;;;;;14.73;10.57;;;6.80;99.90;;;;;;5052848;28;20075;-85
2021/11/17 07:15:25;;;;;;;8.80;6.15;;;6.90;99.90;;;;;;5051582;28;20021;-85
2021/11/17 07:17:51;;;;;;;11.20;8.15;;;7.20;99.90;;;;;;5056507;28;20029;-85
2021/11/17 07:20:17;;;;;;;10.82;7.57;;;6.90;99.90;;;;;;5054597;28;20031;-86
2021/11/17 07:22:43;;;;;;;8.93;7.13;;;7.00;99.90;;;;;;5054481;28;20033;-86
2021/11/17 07:25:12;;;;;;;9.43;7.40;;;7.20;99.90;;;;;;5053633;28;20103;-86
2021/11/17 07:27:38;;;;;;;12.05;8.85;;;7.00;99.90;;;;;;5034502;28;20056;-86
2021/11/17 07:30:06;;;;;;;14.27;10.60;;;7.10;99.90;;;;;;5056557;28;20053;-85
2021/11/17 07:32:32;;;;;;;8.32;7.05;;;7.20;99.90;;;;;;5053167;28;20423;-85
2021/11/17 07:34:58;;;;;;;14.23;10.15;;;7.20;99.90;;;;;;5053885;28;20074;-85
2021/11/17 07:37:24;;;;;;;10.13;7.10;;;7.30;99.90;;;;;;5052644;28;20086;-85
2021/11/17 07:39:49;;;;;;;12.35;7.95;;;7.30;99.90;;;;;;5049567;28;20041;-85
2021/11/17 07:42:15;;;;;;;20.25;16.10;;;7.30;99.90;;;;;;5054031;28;20040;-85
2021/11/17 07:44:43;;;;;;;15.50;11.18;;;7.40;99.90;;;;;;5055122;28;20094;-85
2021/11/17 07:47:09;;;;;;;16.15;12.38;;;7.40;99.90;;;;;;5053804;28;20017;-85
2021/11/17 07:49:35;;;;;;;13.10;9.55;;;7.50;99.90;;;;;;5044655;28;20021;-85
2021/11/17 07:52:01;;;;;;;8.68;6.75;;;7.50;99.90;;;;;;5052759;28;20020;-85
2021/11/17 07:54:28;;;;;;;12.82;8.82;;;7.50;99.90;;;;;;5050746;28;20539;-86
2021/11/17 07:56:54;;;;;;;10.45;7.10;;;7.50;99.90;;;;;;5056124;28;20063;-86
2021/11/17 07:59:23;;;;;;;10.43;6.43;;;7.50;99.90;;;;;;5054058;28;20152;-86
2021/11/17 08:01:51;;;;;;;16.02;14.23;;;7.40;99.90;;;;;;5054120;28;20485;-86
2021/11/17 08:04:18;;;;;;;11.02;7.45;;;7.30;99.90;;;;;;5057341;28;20115;-86
2021/11/17 08:06:45;;;;;;;8.98;6.07;;;7.30;99.90;;;;;;5070627;28;20063;-86
2021/11/17 08:09:12;;;;;;;8.75;6.78;;;7.30;99.90;;;;;;5073991;28;20031;-86
2021/11/17 08:11:42;;;;;;;8.32;6.32;;;7.30;99.90;;;;;;5077615;28;20035;-86
2021/11/17 08:14:08;;;;;;;8.77;6.47;;;7.30;99.90;;;;;;5077911;28;20400;-86
2021/11/17 08:16:34;;;;;;;8.00;5.78;;;7.80;99.90;;;;;;5076163;28;20023;-86
2021/11/17 08:19:00;;;;;;;8.27;6.68;;;7.30;99.90;;;;;;5074937;28;20027;-86
2021/11/17 08:21:26;;;;;;;7.70;5.85;;;7.20;99.90;;;;;;5075006;28;20032;-86
2021/11/17 08:23:51;;;;;;;10.50;8.98;;;7.30;99.90;;;;;;5079851;28;20091;-86
2021/11/17 08:26:19;;;;;;;18.52;13.88;;;7.50;99.90;;;;;;5077664;28;20029;-86
2021/11/17 08:28:46;;;;;;;30.67;21.92;;;7.90;99.90;;;;;;5077594;28;20020;-86
2021/11/17 08:31:13;;;;;;;7.90;6.15;;;7.50;99.90;;;;;;5077798;28;20144;-86
2021/11/17 08:33:40;;;;;;;14.88;10.55;;;7.40;99.90;;;;;;5073670;28;20044;-86
2021/11/17 08:36:07;;;;;;;51.38;33.88;;;7.90;99.90;;;;;;5078659;28;20033;-86
2021/11/17 08:38:33;;;;;;;9.95;7.70;;;7.40;99.90;;;;;;5076279;28;20118;-86
2021/11/17 08:41:02;;;;;;;8.18;6.05;;;7.50;99.90;;;;;;5077754;28;20052;-86
2021/11/17 08:43:30;;;;;;;24.77;18.85;;;7.50;99.90;;;;;;5077503;28;20055;-86
2021/11/17 08:45:56;;;;;;;10.30;7.22;;;7.60;99.90;;;;;;5075534;28;20484;-86
2021/11/17 08:48:25;;;;;;;9.15;6.20;;;7.70;99.90;;;;;;5071788;28;20032;-86
2021/11/17 08:50:56;;;;;;;8.27;6.25;;;7.70;99.90;;;;;;5077950;28;20111;-86
2021/11/17 08:53:24;;;;;;;30.88;21.15;;;8.00;99.90;;;;;;5077206;28;20468;-86
2021/11/17 08:55:52;;;;;;;64.85;43.35;;;7.50;99.90;;;;;;5075658;28;20399;-86
2021/11/17 08:58:18;;;;;;;14.75;10.32;;;7.90;99.90;;;;;;5075899;28;20392;-86
2021/11/17 09:00:46;;;;;;;8.10;5.72;;;7.70;99.90;;;;;;5073087;28;20507;-86
2021/11/17 09:03:12;;;;;;;7.43;5.85;;;7.70;99.90;;;;;;5077156;28;20073;-86
2021/11/17 09:05:45;;;;;;;17.73;13.50;;;8.20;99.90;;;;;;5077825;28;20131;-86
2021/11/17 09:08:11;;;;;;;9.10;6.68;;;7.80;99.90;;;;;;5076730;28;20424;-86
2021/11/17 09:10:41;;;;;;;46.65;30.98;;;7.90;99.90;;;;;;5077101;28;20025;-86
2021/11/17 09:13:06;;;;;;;12.80;8.65;;;7.70;99.90;;;;;;5076266;28;20361;-86
2021/11/17 09:15:36;;;;;;;14.15;9.43;;;7.80;99.90;;;;;;5072741;28;20158;-86
2021/11/17 09:18:04;;;;;;;16.08;9.93;;;8.30;99.90;;;;;;5078278;28;20031;-86
2021/11/17 09:20:30;;;;;;;14.07;7.68;;;7.90;99.90;;;;;;5066911;28;20466;-86
2021/11/17 09:22:56;;;;;;;7.90;4.78;;;7.90;99.90;;;;;;5076144;28;20035;-85
2021/11/17 09:25:24;;;;;;;6.05;4.88;;;7.90;99.90;;;;;;5076479;28;20044;-86
2021/11/17 09:27:49;;;;;;;15.65;11.02;;;7.80;99.90;;;;;;5074171;28;20060;-86
2021/11/17 09:30:19;;;;;;;6.10;4.63;;;7.70;99.90;;;;;;5075883;28;20048;-86
2021/11/17 09:32:49;;;;;;;7.82;5.47;;;7.80;99.90;;;;;;5077807;28;20029;-86
2021/11/17 09:35:16;;;;;;;14.85;9.88;;;7.70;99.90;;;;;;5074994;28;20100;-86
2021/11/17 09:37:44;;;;;;;8.23;7.25;;;7.70;99.90;;;;;;5075244;28;20032;-86
2021/11/17 09:40:13;;;;;;;12.70;9.02;;;7.70;99.90;;;;;;5076268;28;20036;-86
2021/11/17 09:42:40;;;;;;;6.13;4.25;;;8.10;99.90;;;;;;5056219;28;20473;-86
2021/11/17 09:45:10;;;;;;;5.90;4.40;;;7.60;99.90;;;;;;5078087;28;20063;-86
2021/11/17 09:47:37;;;;;;;6.18;2.70;;;7.60;99.90;;;;;;5075065;28;20035;-86
2021/11/17 09:50:15;;;;;;;4.43;2.78;;;7.50;99.90;;;;;;5075680;28;20024;-86
2021/11/17 09:52:55;;;;;;;3.45;2.45;;;7.50;99.90;;;;;;5076147;28;20116;-86
2021/11/17 09:55:33;;;;;;;4.40;2.45;;;7.90;99.90;;;;;;5076007;28;20032;-86
2021/11/17 09:58:08;;;;;;;5.03;2.95;;;7.60;99.90;;;;;;5074239;28;20032;-86
2021/11/17 10:00:48;;;;;;;4.38;2.58;;;7.70;99.90;;;;;;5072128;28;20104;-86
2021/11/17 10:03:30;;;;;;;4.47;2.42;;;7.70;99.90;;;;;;5086555;28;20024;-86
2021/11/17 10:06:23;;;;;;;3.60;2.78;;;7.60;99.90;;;;;;5075744;28;20052;-85
2021/11/17 10:14:57;;;;;;;2.58;2.03;;;7.70;99.90;;;;;;5015391;28;20124;-86
2021/11/17 10:17:34;;;;;;;2.45;1.65;;;7.70;99.90;;;;;;5012011;28;20052;-86
2021/11/17 10:20:20;;;;;;;3.05;1.98;;;7.80;99.90;;;;;;5013047;28;20042;-85
2021/11/17 10:23:05;;;;;;;3.53;1.70;;;7.80;99.90;;;;;;5013212;28;20130;-86
2021/11/17 10:25:48;;;;;;;2.65;1.77;;;7.90;99.90;;;;;;5013204;28;20042;-86
2021/11/17 10:28:31;;;;;;;4.45;1.80;;;7.90;99.90;;;;;;5013178;28;20498;-86
2021/11/17 10:31:05;;;;;;;9.80;5.30;;;8.10;99.90;;;;;;5011501;28;20037;-86
2021/11/17 10:34:05;;;;;;;2.78;1.50;;;8.20;99.90;;;;;;5008747;28;20029;-86
2021/11/17 10:36:36;;;;;;;3.03;1.60;;;8.10;99.90;;;;;;5024264;28;20057;-86
2021/11/17 10:39:37;;;;;;;5.43;3.00;;;8.00;99.90;;;;;;5015569;28;20041;-86
2021/11/17 10:42:05;;;;;;;3.13;1.30;;;8.10;99.90;;;;;;5014992;28;20048;-86
2021/11/17 10:44:54;;;;;;;2.80;1.00;;;8.20;99.90;;;;;;5013352;28;20029;-86
2021/11/17 10:47:28;;;;;;;5.60;1.27;;;8.40;99.90;;;;;;5012820;28;20176;-86
2021/11/17 10:50:15;;;;;;;4.93;1.23;;;8.50;99.90;;;;;;5074507;28;20028;-86
2021/11/17 10:52:57;;;;;;;6.63;3.30;;;8.60;99.90;;;;;;5073304;28;20021;-86
2021/11/17 10:55:45;;;;;;;3.90;1.40;;;8.70;99.90;;;;;;5073298;28;20051;-86
2021/11/17 10:58:15;;;;;;;1.42;1.00;;;8.90;99.90;;;;;;5074550;28;20023;-86
2021/11/17 11:00:45;;;;;;;6.00;4.78;;;9.50;99.90;;;;;;5071069;28;20033;-86
2021/11/17 11:03:15;;;;;;;5.88;1.30;;;9.00;99.90;;;;;;5074759;28;20063;-86
2021/11/17 11:05:50;;;;;;;3.28;1.20;;;8.90;99.90;;;;;;5073786;28;20045;-85
2021/11/17 11:08:17;;;;;;;2.78;1.15;;;9.20;99.90;;;;;;5074576;28;20036;-86
2021/11/17 11:10:48;;;;;;;1.85;1.10;;;9.20;99.90;;;;;;5074324;28;20025;-86
2021/11/17 11:13:25;;;;;;;2.50;0.95;;;9.10;99.90;;;;;;5074330;28;20028;-86
2021/11/17 11:15:55;;;;;;;1.38;1.15;;;8.90;99.90;;;;;;5071817;28;20033;-86
2021/11/17 11:18:21;;;;;;;1.50;1.02;;;9.10;99.90;;;;;;5072807;28;20457;-86
2021/11/17 11:20:48;;;;;;;1.25;1.00;;;9.10;99.90;;;;;;5076016;28;20063;-86
2021/11/17 11:23:15;;;;;;;1.35;0.80;;;9.60;99.90;;;;;;5074390;28;20028;-86
2021/11/17 11:25:53;;;;;;;1.00;0.80;;;9.70;99.90;;;;;;5074582;28;20137;-86
2021/11/17 11:28:22;;;;;;;3.83;0.93;;;9.10;99.90;;;;;;5074287;28;20168;-86
2021/11/17 11:30:50;;;;;;;1.38;1.27;;;9.50;99.90;;;;;;5070096;28;20033;-86
2021/11/17 11:33:50;;;;;;;0.90;0.70;;;9.90;99.90;;;;;;5073154;28;20055;-86
2021/11/17 11:36:16;;;;;;;1.65;1.20;;;9.40;99.90;;;;;;5022416;28;20127;-85
2021/11/17 11:38:43;;;;;;;1.33;1.10;;;9.90;99.90;;;;;;5013756;28;20054;-86
2021/11/17 11:41:22;;;;;;;1.20;0.90;;;9.80;99.90;;;;;;5010456;28;20041;-86
2021/11/17 11:44:17;;;;;;;1.42;0.77;;;9.50;99.90;;;;;;5010287;28;20061;-86
2021/11/17 11:46:45;;;;;;;1.45;0.88;;;9.70;99.90;;;;;;5009082;28;20033;-85
2021/11/17 11:49:32;;;;;;;2.08;1.10;;;10.10;99.90;;;;;;5010484;28;20502;-86
2021/11/17 11:52:09;;;;;;;2.63;0.80;;;9.80;99.90;;;;;;5008429;28;20045;-85
2021/11/17 11:54:53;;;;;;;1.85;0.88;;;10.20;99.90;;;;;;5006594;28;20048;-85
2021/11/17 11:57:35;;;;;;;0.85;0.85;;;10.80;99.90;;;;;;5022206;28;20025;-85
2021/11/17 12:00:12;;;;;;;2.95;1.17;;;11.10;99.90;;;;;;5013283;28;20108;-86
2021/11/17 12:02:49;;;;;;;0.68;0.60;;;11.50;99.90;;;;;;5012216;28;20029;-86
2021/11/17 12:05:46;;;;;;;1.33;1.20;;;11.70;99.90;;;;;;5009815;28;20426;-86
2021/11/17 12:08:20;;;;;;;3.15;1.33;;;11.70;99.90;;;;;;5010535;28;20038;-86
2021/11/17 12:11:06;;;;;;;68.78;30.25;;;11.10;99.90;;;;;;5012171;28;20033;-86
2021/11/17 12:13:36;;;;;;;202.95;61.35;;;11.30;99.90;;;;;;5045002;28;20029;-85
2021/11/17 12:16:07;;;;;;;12.38;4.68;;;11.30;99.90;;;;;;5052214;28;20499;-86
2021/11/17 12:18:49;;;;;;;74.47;25.95;;;11.90;99.90;;;;;;5049715;28;20083;-86
2021/11/17 12:21:29;;;;;;;27.58;10.23;;;11.90;99.90;;;;;;5064348;28;20114;-86
2021/11/17 12:24:27;;;;;;;99.18;31.35;;;12.60;99.90;;;;;;5054356;28;20040;-86
2021/11/17 12:27:13;;;;;;;58.85;21.65;;;12.10;99.90;;;;;;5038553;28;20750;-86
2021/11/17 12:29:59;;;;;;;28.40;12.05;;;11.80;99.90;;;;;;5054853;28;20294;-86
2021/11/17 12:32:49;;;;;;;26.73;11.32;;;11.60;99.90;;;;;;5054701;28;20465;-86
2021/11/17 12:35:27;;;;;;;23.75;10.73;;;11.80;99.90;;;;;;5053390;28;20079;-85
2021/11/17 12:37:57;;;;;;;22.75;10.25;;;11.70;99.90;;;;;;5053439;28;20021;-86
2021/11/17 12:40:44;;;;;;;42.08;19.30;;;11.20;99.90;;;;;;5053368;28;20405;-86
2021/11/17 12:43:27;;;;;;;13.77;10.30;;;10.70;99.90;;;;;;5053511;28;20054;-85
2021/11/17 12:46:10;;;;;;;3.65;3.17;;;10.50;99.90;;;;;;5036668;28;20051;-85
2021/11/17 12:48:49;;;;;;;6.47;3.85;;;10.50;99.90;;;;;;5032184;28;20021;-85
2021/11/17 12:51:30;;;;;;;3.22;2.47;;;10.30;99.90;;;;;;5063167;28;20043;-85
2021/11/17 12:54:30;;;;;;;7.95;6.30;;;10.30;99.90;;;;;;5054363;28;20043;-86
2021/11/17 12:56:59;;;;;;;30.95;22.65;;;10.10;99.90;;;;;;4995623;28;20419;-86
2021/11/17 12:59:37;;;;;;;12.15;8.80;;;9.70;99.90;;;;;;4993614;28;20649;-86
2021/11/17 13:02:20;;;;;;;4.10;3.13;;;9.60;99.90;;;;;;4993628;28;20022;-85
2021/11/17 13:04:47;;;;;;;13.32;9.63;;;9.40;99.90;;;;;;4993480;28;20054;-86
2021/11/17 13:07:42;;;;;;;1.45;1.30;;;9.30;99.90;;;;;;4993173;28;20117;-86
2021/11/17 13:10:09;;;;;;;18.67;15.00;;;9.30;99.90;;;;;;4993419;28;20037;-86
2021/11/17 13:12:37;;;;;;;8.57;7.40;;;9.30;99.90;;;;;;4989965;28;20073;-85
2021/11/17 13:15:05;;;;;;;15.80;12.23;;;9.50;99.90;;;;;;4996594;28;20027;-86
2021/11/17 13:17:33;;;;;;;3.70;2.80;;;9.60;99.90;;;;;;4993500;28;20046;-86
2021/11/17 13:20:14;;;;;;;3.63;2.90;;;9.70;99.90;;;;;;4993563;28;20050;-85
2021/11/17 13:22:47;;;;;;;12.73;9.50;;;9.50;99.90;;;;;;4993386;28;20609;-86
2021/11/17 13:25:13;;;;;;;6.53;4.75;;;9.60;99.90;;;;;;4993315;28;20033;-86
2021/11/17 13:28:03;;;;;;;5.93;5.32;;;9.50;99.90;;;;;;4989396;28;20034;-86
2021/11/17 13:30:43;;;;;;;2.15;1.88;;;9.50;99.90;;;;;;5005793;28;20045;-86
2021/11/17 13:33:32;;;;;;;1.20;1.10;;;9.50;99.90;;;;;;5052647;28;20443;-85
2021/11/17 13:36:13;;;;;;;5.55;4.57;;;9.50;99.90;;;;;;5057366;28;20048;-85
2021/11/17 13:38:52;;;;;;;13.25;10.68;;;9.20;99.90;;;;;;5054625;28;20558;-86
2021/11/17 13:41:18;;;;;;;10.00;7.90;;;9.40;99.90;;;;;;5056389;28;20087;-86
2021/11/17 13:43:43;;;;;;;8.32;6.00;;;9.30;99.90;;;;;;5056089;28;20029;-86
2021/11/17 13:46:14;;;;;;;2.67;1.73;;;9.10;99.90;;;;;;5055788;28;20545;-85
2021/11/17 13:48:41;;;;;;;27.08;18.67;;;9.20;99.90;;;;;;5036286;28;20770;-86
2021/11/17 13:51:08;;;;;;;9.63;7.50;;;9.00;99.90;;;;;;5057872;28;20032;-86
2021/11/17 13:53:35;;;;;;;14.30;10.13;;;9.40;99.90;;;;;;5054753;28;20025;-86
2021/11/17 13:56:09;;;;;;;2.00;1.50;;;8.90;99.90;;;;;;5056421;28;20025;-85
2021/11/17 13:58:35;;;;;;;7.60;5.85;;;8.90;99.90;;;;;;5055469;28;20540;-85
2021/11/17 14:01:03;;;;;;;3.10;2.60;;;8.90;99.90;;;;;;5054594;28;20108;-86
2021/11/17 14:03:31;;;;;;;35.60;17.52;;;8.80;99.90;;;;;;5052733;28;20079;-86
2021/11/17 14:06:03;;;;;;;33.10;13.20;;;9.00;99.90;;;;;;5075301;28;20048;-85
2021/11/17 14:08:30;;;;;;;14.02;5.72;;;8.70;99.90;;;;;;5073797;28;20566;-86
2021/11/17 14:10:56;;;;;;;73.15;31.58;;;9.20;99.90;;;;;;5073693;28;20017;-85
2021/11/17 14:13:22;;;;;;;42.85;18.13;;;8.80;99.90;;;;;;5075621;28;20038;-85
2021/11/17 14:15:47;;;;;;;53.65;22.17;;;8.50;99.90;;;;;;5073013;28;20436;-85
2021/11/17 14:18:14;;;;;;;88.18;38.13;;;8.60;99.90;;;;;;5075607;28;20070;-86
2021/11/17 14:20:40;;;;;;;5.20;3.42;;;8.70;99.90;;;;;;5076066;28;20025;-86
2021/11/17 14:23:07;;;;;;;4.55;2.38;;;9.10;99.90;;;;;;5075812;28;20035;-86
2021/11/17 14:25:34;;;;;;;23.13;17.17;;;8.50;99.90;;;;;;5074785;28;20024;-86
2021/11/17 14:28:06;;;;;;;10.38;7.90;;;8.90;99.90;;;;;;5073809;28;20040;-85
2021/11/17 14:30:40;;;;;;;10.60;7.70;;;8.50;99.90;;;;;;5072063;28;20028;-86
2021/11/17 14:33:09;;;;;;;2.67;2.20;;;8.80;99.90;;;;;;5085166;28;20019;-86
2021/11/17 14:35:35;;;;;;;2.83;1.88;;;8.80;99.90;;;;;;5074146;28;20037;-85
2021/11/17 14:38:01;;;;;;;16.15;13.70;;;8.50;99.90;;;;;;5075179;28;20400;-86
2021/11/17 14:40:29;;;;;;;14.77;12.60;;;8.80;99.90;;;;;;5075166;28;20484;-86
2021/11/17 14:42:54;;;;;;;12.40;8.95;;;8.60;99.90;;;;;;5073307;28;20035;-85
2021/11/17 14:45:24;;;;;;;14.85;11.80;;;8.60;99.90;;;;;;5074131;28;20392;-85
2021/11/17 14:47:49;;;;;;;7.85;6.22;;;8.60;99.90;;;;;;5075350;28;20130;-86
2021/11/17 14:50:16;;;;;;;8.27;7.00;;;9.20;99.90;;;;;;5073671;28;20096;-85
2021/11/17 14:52:42;;;;;;;5.13;2.42;;;8.60;99.90;;;;;;5074875;28;20029;-85
2021/11/17 14:55:12;;;;;;;5.53;4.75;;;8.80;99.90;;;;;;5074280;28;20111;-85
2021/11/17 14:57:38;;;;;;;3.60;1.92;;;8.60;99.90;;;;;;5055053;28;20508;-85
2021/11/17 15:00:17;;;;;;;4.95;4.25;;;8.60;99.90;;;;;;5076963;28;20481;-85
2021/11/17 15:02:43;;;;;;;3.00;2.35;;;8.60;99.90;;;;;;5073841;28;20451;-85
2021/11/17 15:05:10;;;;;;;3.35;2.33;;;8.40;99.90;;;;;;5074428;28;20048;-84
2021/11/17 15:07:36;;;;;;;3.80;2.38;;;8.40;99.90;;;;;;5074665;28;20029;-85
2021/11/17 15:10:04;;;;;;;3.15;2.65;;;8.30;99.90;;;;;;5073354;28;20027;-85
2021/11/17 15:12:32;;;;;;;2.63;2.13;;;8.30;99.90;;;;;;5071376;28;20556;-85
2021/11/17 15:15:00;;;;;;;5.32;4.82;;;8.30;99.90;;;;;;5076707;28;20071;-86
2021/11/17 15:17:26;;;;;;;4.50;3.03;;;8.30;99.90;;;;;;5074229;28;20059;-85
2021/11/17 15:19:52;;;;;;;2.50;1.90;;;8.20;99.90;;;;;;5074194;28;20507;-85
2021/11/17 15:22:19;;;;;;;16.15;10.27;;;8.20;99.90;;;;;;5074358;28;20028;-85
2021/11/17 15:24:45;;;;;;;50.22;28.45;;;8.40;99.90;;;;;;5069258;28;20037;-85
2021/11/17 15:27:26;;;;;;;11.23;6.40;;;8.20;99.90;;;;;;5075270;28;20042;-85
2021/11/17 15:29:53;;;;;;;4.45;3.40;;;8.10;99.90;;;;;;5074976;28;20029;-85
2021/11/17 15:32:20;;;;;;;39.55;23.02;;;8.10;99.90;;;;;;5074235;28;20085;-85
2021/11/17 15:34:47;;;;;;;14.57;9.13;;;8.40;99.90;;;;;;5074329;28;20108;-85
2021/11/17 15:37:14;;;;;;;46.65;30.92;;;8.20;99.90;;;;;;5067714;28;20095;-85
2021/11/17 15:39:39;;;;;;;10.05;6.60;;;8.60;99.90;;;;;;5069593;28;20448;-85
2021/11/17 15:42:06;;;;;;;15.65;11.70;;;8.10;99.90;;;;;;5087869;28;20020;-85
2021/11/17 15:44:32;;;;;;;13.38;9.60;;;8.00;99.90;;;;;;5074548;28;20024;-85
2021/11/17 15:47:01;;;;;;;12.10;9.27;;;8.30;99.90;;;;;;5073722;28;20038;-86
2021/11/17 15:49:28;;;;;;;18.52;13.35;;;8.00;99.90;;;;;;5074099;28;20028;-85
2021/11/17 15:51:55;;;;;;;10.75;7.75;;;8.10;99.90;;;;;;5071552;28;20020;-85
2021/11/17 15:54:21;;;;;;;9.00;5.40;;;8.10;99.90;;;;;;5072061;28;20077;-85
2021/11/17 15:56:47;;;;;;;5.57;3.58;;;8.10;99.90;;;;;;5076149;28;20025;-85
2021/11/17 15:59:15;;;;;;;7.95;5.82;;;8.10;99.90;;;;;;5073597;28;20033;-86
2021/11/17 16:01:42;;;;;;;4.15;3.55;;;8.10;99.90;;;;;;5074330;28;20392;-85